createdAt,value
2023-01-30T00:01:04.603Z,80.07
2023-01-30T00:03:31.305Z,75.60
2023-01-30T00:05:58.072Z,75.32
2023-01-30T00:08:24.675Z,67.57
2023-01-30T00:10:51.306Z,63.13
2023-01-30T00:13:17.964Z,51.78
2023-01-30T00:15:44.686Z,50.22
2023-01-30T00:18:11.307Z,50.80
2023-01-30T00:20:38.011Z,47.47
2023-01-30T00:23:05.801Z,50.92
2023-01-30T00:25:32.752Z,49.63
2023-01-30T00:28:01.308Z,50.92
2023-01-30T00:30:28.434Z,53.95
2023-01-30T00:32:59.141Z,56.53
2023-01-30T00:35:28.793Z,58.53
2023-01-30T00:37:57.622Z,62.42
2023-01-30T00:40:25.843Z,64.35
2023-01-30T00:46:03.885Z,79.45
2023-01-30T00:48:31.278Z,86.97
2023-01-30T00:50:58.026Z,97.53
2023-01-30T00:53:24.881Z,96.55
2023-01-30T00:55:54.004Z,99.47
2023-01-30T00:58:21.801Z,104.75
2023-01-30T01:00:50.354Z,94.70
2023-01-30T01:03:17.261Z,90.78
2023-01-30T01:05:44.316Z,94.45
2023-01-30T01:08:11.365Z,91.50
2023-01-30T01:10:38.272Z,87.63
2023-01-30T01:13:07.018Z,95.10
2023-01-30T01:15:34.325Z,99.82
2023-01-30T01:18:00.896Z,97.03
2023-01-30T01:20:27.528Z,96.80
2023-01-30T01:22:56.296Z,107.93
2023-01-30T01:25:24.127Z,104.75
2023-01-30T01:27:50.883Z,99.38
2023-01-30T01:30:18.287Z,99.63
2023-01-30T01:32:45.088Z,106.03
2023-01-30T01:35:12.023Z,105.90
2023-01-30T01:37:38.709Z,108.32
2023-01-30T01:40:24.599Z,108.95
2023-01-30T01:42:51.489Z,96.68
2023-01-30T01:45:23.446Z,96.85
2023-01-30T01:47:57.532Z,94.93
2023-01-30T01:50:52.438Z,83.32
2023-01-30T01:53:23.521Z,77.05
2023-01-30T01:55:53.830Z,93.60
2023-01-30T01:58:26.544Z,84.60
2023-01-30T02:00:55.710Z,79.85
2023-01-30T02:03:25.521Z,75.00
2023-01-30T02:05:57.550Z,73.25
2023-01-30T02:08:33.541Z,75.97
2023-01-30T02:11:15.427Z,88.43
2023-01-30T02:13:42.102Z,79.68
2023-01-30T02:16:09.607Z,79.72
2023-01-30T02:18:39.389Z,85.13
2023-01-30T02:21:24.249Z,87.95
2023-01-30T02:24:16.186Z,76.78
2023-01-30T02:26:54.886Z,71.50
2023-01-30T02:29:42.838Z,71.30
2023-01-30T02:32:26.519Z,77.00
2023-01-30T02:35:07.039Z,73.50
2023-01-30T02:37:55.423Z,70.45
2023-01-30T02:40:39.501Z,73.05
2023-01-30T02:43:28.670Z,69.70
2023-01-30T02:46:20.031Z,67.38
2023-01-30T02:48:57.596Z,66.50
2023-01-30T02:51:29.936Z,66.22
2023-01-30T02:53:57.666Z,68.10
2023-01-30T02:56:24.345Z,69.43
2023-01-30T02:58:58.669Z,70.80
2023-01-30T03:01:49.571Z,67.28
2023-01-30T03:04:32.237Z,67.15
2023-01-30T03:07:20.246Z,68.95
2023-01-30T03:09:58.091Z,67.13
2023-01-30T03:12:48.859Z,69.82
2023-01-30T03:15:38.782Z,74.53
2023-01-30T03:18:07.001Z,76.97
2023-01-30T03:20:38.679Z,81.68
2023-01-30T03:23:05.915Z,85.65
2023-01-30T03:25:35.276Z,92.50
2023-01-30T03:28:04.023Z,100.88
2023-01-30T03:30:30.659Z,99.95
2023-01-30T03:32:57.249Z,99.85
2023-01-30T03:35:24.055Z,101.18
2023-01-30T03:37:51.000Z,104.47
2023-01-30T03:40:18.165Z,98.90
2023-01-30T03:42:44.733Z,114.30
2023-01-30T03:45:11.957Z,96.03
2023-01-30T03:47:38.536Z,96.85
2023-01-30T03:50:05.449Z,91.43
2023-01-30T03:52:35.370Z,85.68
2023-01-30T03:55:02.278Z,82.25
2023-01-30T03:57:28.881Z,82.25
2023-01-30T03:59:55.473Z,76.45
2023-01-30T04:02:23.563Z,76.65
2023-01-30T04:04:50.275Z,75.45
2023-01-30T04:07:17.625Z,75.53
2023-01-30T04:09:44.231Z,77.82
2023-01-30T04:12:10.822Z,79.10
2023-01-30T04:14:37.422Z,84.15
2023-01-30T04:17:03.985Z,76.63
2023-01-30T04:19:30.550Z,84.20
2023-01-30T04:21:57.077Z,75.82
2023-01-30T04:24:23.658Z,94.18
2023-01-30T04:26:50.201Z,81.75
2023-01-30T04:29:16.723Z,86.70
2023-01-30T04:31:43.391Z,83.40
2023-01-30T04:34:09.948Z,84.30
2023-01-30T04:36:37.146Z,93.40
2023-01-30T04:39:03.785Z,81.70
2023-01-30T04:41:30.450Z,93.47
2023-01-30T04:43:57.024Z,87.25
2023-01-30T04:46:23.608Z,94.00
2023-01-30T04:48:50.192Z,97.15
2023-01-30T04:51:16.833Z,107.40
2023-01-30T04:53:43.402Z,97.43
2023-01-30T04:56:09.996Z,98.43
2023-01-30T04:58:36.609Z,92.47
2023-01-30T05:01:29.622Z,109.30
2023-01-30T05:03:56.369Z,104.55
2023-01-30T05:06:23.199Z,115.43
2023-01-30T05:08:54.946Z,132.57
2023-01-30T05:11:22.702Z,112.13
2023-01-30T05:13:50.116Z,114.65
2023-01-30T05:16:18.029Z,124.20
2023-01-30T05:18:44.904Z,120.45
2023-01-30T05:21:17.523Z,112.85
2023-01-30T05:23:44.791Z,118.28
2023-01-30T05:26:13.000Z,118.38
2023-01-30T05:28:39.830Z,131.73
2023-01-30T05:31:14.115Z,131.90
2023-01-30T05:33:41.511Z,120.70
2023-01-30T05:36:13.865Z,136.80
2023-01-30T05:38:40.476Z,151.27
2023-01-30T05:41:08.470Z,147.95
2023-01-30T05:43:35.555Z,130.88
2023-01-30T05:46:03.798Z,139.38
2023-01-30T05:48:30.536Z,136.90
2023-01-30T05:50:59.199Z,143.00
2023-01-30T05:53:29.770Z,144.82
2023-01-30T05:56:02.031Z,147.95
2023-01-30T05:58:29.181Z,164.13
2023-01-30T06:01:00.584Z,163.10
2023-01-30T06:03:27.246Z,149.45
2023-01-30T06:05:53.876Z,140.43
2023-01-30T06:08:20.596Z,158.38
2023-01-30T06:10:47.159Z,167.00
2023-01-30T06:13:13.731Z,174.13
2023-01-30T06:15:40.325Z,158.02
2023-01-30T06:18:06.885Z,157.68
2023-01-30T06:20:33.444Z,215.23
2023-01-30T06:23:00.003Z,190.20
2023-01-30T06:25:27.400Z,182.48
2023-01-30T06:27:53.995Z,185.98
2023-01-30T06:30:20.575Z,213.05
2023-01-30T06:32:50.755Z,208.43
2023-01-30T06:35:17.638Z,210.02
2023-01-30T06:37:45.424Z,250.25
2023-01-30T06:40:12.990Z,251.38
2023-01-30T06:42:44.511Z,285.67
2023-01-30T06:45:11.537Z,289.73
2023-01-30T06:47:47.632Z,298.30
2023-01-30T06:50:15.634Z,405.67
2023-01-30T06:52:47.231Z,288.23
2023-01-30T06:55:16.530Z,302.75
2023-01-30T06:57:44.220Z,304.60
2023-01-30T07:00:16.577Z,311.58
2023-01-30T07:02:43.671Z,292.10
2023-01-30T07:05:10.753Z,298.95
2023-01-30T07:07:38.544Z,298.63
2023-01-30T07:10:09.057Z,282.45
2023-01-30T07:12:37.052Z,303.80
2023-01-30T07:15:04.944Z,296.23
2023-01-30T07:17:31.585Z,291.55
2023-01-30T07:19:58.219Z,262.27
2023-01-30T07:22:25.057Z,282.63
2023-01-30T07:24:51.788Z,316.77
2023-01-30T07:27:18.441Z,293.55
2023-01-30T07:29:45.015Z,250.02
2023-01-30T07:32:15.931Z,229.25
2023-01-30T07:34:42.547Z,230.05
2023-01-30T07:37:09.201Z,210.55
2023-01-30T07:39:36.158Z,201.57
2023-01-30T07:42:03.479Z,194.23
2023-01-30T07:44:30.628Z,192.80
2023-01-30T07:46:57.383Z,203.13
2023-01-30T07:49:24.053Z,211.77
2023-01-30T07:51:50.715Z,192.20
2023-01-30T07:54:17.465Z,184.95
2023-01-30T07:56:44.677Z,205.90
2023-01-30T07:59:12.179Z,212.57
2023-01-30T08:01:38.769Z,185.38
2023-01-30T08:04:05.635Z,171.52
2023-01-30T08:06:32.448Z,169.80
2023-01-30T08:08:58.999Z,167.02
2023-01-30T08:11:25.651Z,165.50
2023-01-30T08:13:52.238Z,165.25
2023-01-30T08:16:18.884Z,163.45
2023-01-30T08:18:45.464Z,173.75
2023-01-30T08:21:12.107Z,185.40
2023-01-30T08:23:38.699Z,161.90
2023-01-30T08:26:06.289Z,156.65
2023-01-30T08:28:33.248Z,137.57
2023-01-30T08:31:00.004Z,144.13
2023-01-30T08:33:26.703Z,129.80
2023-01-30T08:35:53.350Z,132.18
2023-01-30T08:38:19.978Z,126.05
2023-01-30T08:40:46.601Z,133.18
2023-01-30T08:43:14.143Z,135.52
2023-01-30T08:45:40.692Z,138.82
2023-01-30T08:48:07.814Z,128.43
2023-01-30T08:50:35.385Z,122.13
2023-01-30T08:53:10.032Z,112.78
2023-01-30T08:55:36.716Z,104.57
2023-01-30T08:58:03.234Z,95.93
2023-01-30T09:00:30.370Z,88.45
2023-01-30T09:02:58.088Z,89.07
2023-01-30T09:05:25.116Z,82.65
2023-01-30T09:07:51.838Z,78.47
2023-01-30T09:10:18.944Z,77.07
2023-01-30T09:12:46.584Z,80.55
2023-01-30T09:15:13.254Z,68.30
2023-01-30T09:17:40.144Z,63.40
2023-01-30T09:20:08.284Z,61.95
2023-01-30T09:22:34.983Z,65.32
2023-01-30T09:25:01.772Z,60.88
2023-01-30T09:27:28.383Z,66.93
2023-01-30T09:29:55.024Z,66.88
2023-01-30T09:32:21.695Z,64.95
2023-01-30T09:34:48.236Z,62.97
2023-01-30T09:37:14.901Z,62.67
2023-01-30T09:39:41.564Z,60.03
2023-01-30T09:42:45.186Z,61.35
2023-01-30T09:46:00.556Z,64.95
2023-01-30T09:48:34.567Z,64.90
2023-01-30T09:51:22.943Z,71.68
2023-01-30T09:54:24.286Z,62.30
2023-01-30T09:57:20.905Z,66.32
2023-01-30T09:59:57.342Z,64.78
2023-01-30T10:02:53.204Z,65.43
2023-01-30T10:05:19.942Z,68.50
2023-01-30T10:07:49.647Z,66.25
2023-01-30T10:10:31.158Z,66.82
2023-01-30T10:13:16.047Z,69.10
2023-01-30T10:15:55.539Z,62.88
2023-01-30T10:18:38.831Z,64.97
2023-01-30T10:21:24.947Z,62.00
2023-01-30T10:23:51.430Z,60.00
2023-01-30T10:26:21.749Z,54.10
2023-01-30T10:29:11.572Z,57.42
2023-01-30T10:32:01.776Z,56.97
2023-01-30T10:34:40.430Z,54.95
2023-01-30T10:37:19.867Z,59.95
2023-01-30T10:39:58.644Z,61.05
2023-01-30T10:42:39.056Z,60.75
2023-01-30T10:45:24.474Z,63.33
2023-01-30T10:48:05.833Z,57.13
2023-01-30T10:50:59.989Z,59.50
2023-01-30T10:53:50.240Z,57.40
2023-01-30T10:56:28.484Z,60.03
2023-01-30T10:59:20.723Z,61.13
2023-01-30T11:02:19.778Z,59.53
2023-01-30T11:05:03.653Z,59.65
2023-01-30T11:07:32.493Z,58.92
2023-01-30T11:10:00.245Z,56.03
2023-01-30T11:12:27.523Z,62.38
2023-01-30T11:14:56.668Z,59.05
2023-01-30T11:17:41.976Z,63.58
2023-01-30T11:20:19.276Z,56.58
2023-01-30T11:22:52.137Z,57.00
2023-01-30T11:25:23.144Z,59.72
2023-01-30T11:28:00.918Z,61.38
2023-01-30T11:30:30.622Z,59.95
2023-01-30T11:33:12.910Z,57.45
2023-01-30T11:35:54.926Z,55.38
2023-01-30T11:38:25.282Z,52.45
2023-01-30T11:41:06.450Z,55.13
2023-01-30T11:43:35.169Z,58.90
2023-01-30T11:46:02.545Z,53.22
2023-01-30T11:48:34.060Z,57.38
2023-01-30T11:51:23.798Z,55.72
2023-01-30T11:53:56.127Z,55.40
2023-01-30T11:56:48.777Z,53.03
2023-01-30T11:59:40.253Z,58.40
2023-01-30T12:02:27.721Z,82.32
2023-01-30T12:05:05.361Z,60.25
2023-01-30T12:07:34.528Z,58.67
2023-01-30T12:10:01.307Z,57.30
2023-01-30T12:12:43.919Z,59.15
2023-01-30T12:15:24.807Z,59.72
2023-01-30T12:18:14.222Z,55.53
2023-01-30T12:21:02.628Z,60.83
2023-01-30T12:24:13.980Z,58.58
2023-01-30T12:26:59.276Z,60.15
2023-01-30T12:29:37.527Z,56.75
2023-01-30T12:32:20.100Z,58.92
2023-01-30T12:34:48.296Z,59.38
2023-01-30T12:37:35.230Z,62.58
2023-01-30T12:40:13.603Z,58.70
2023-01-30T12:43:02.036Z,56.58
2023-01-30T12:45:32.860Z,57.97
2023-01-30T12:48:23.852Z,60.58
2023-01-30T12:51:05.217Z,61.35
2023-01-30T12:53:39.074Z,59.78
2023-01-30T12:56:26.822Z,60.53
2023-01-30T12:59:28.456Z,63.70
2023-01-30T13:01:55.012Z,58.83
2023-01-30T13:04:56.460Z,59.85
2023-01-30T13:08:08.903Z,62.33
2023-01-30T13:10:52.030Z,63.97
2023-01-30T13:13:59.163Z,65.07
2023-01-30T13:16:45.716Z,62.17
2023-01-30T13:19:40.400Z,57.80
2023-01-30T13:22:18.167Z,60.42
2023-01-30T13:24:51.058Z,61.60
2023-01-30T13:27:20.689Z,61.85
2023-01-30T13:29:49.710Z,56.65
2023-01-30T13:32:24.934Z,53.67
2023-01-30T13:34:53.695Z,52.58
2023-01-30T13:37:20.556Z,51.63
2023-01-30T13:39:50.099Z,49.40
2023-01-30T13:42:44.504Z,49.33
2023-01-30T13:45:18.218Z,48.72
2023-01-30T13:48:03.725Z,47.60
2023-01-30T13:51:11.939Z,45.78
2023-01-30T13:53:51.762Z,46.15
2023-01-30T13:56:41.504Z,46.80
2023-01-30T13:59:41.468Z,54.47
2023-01-30T14:02:16.756Z,47.05
2023-01-30T14:04:46.375Z,48.30
2023-01-30T14:07:12.915Z,47.83
2023-01-30T14:09:49.767Z,44.92
2023-01-30T14:12:22.618Z,49.13
2023-01-30T14:15:16.150Z,46.92
2023-01-30T14:18:07.397Z,48.38
2023-01-30T14:20:47.674Z,45.58
2023-01-30T14:24:03.149Z,44.00
2023-01-30T14:26:48.032Z,47.13
2023-01-30T14:29:39.356Z,46.58
2023-01-30T14:32:15.541Z,48.40
2023-01-30T14:35:04.241Z,46.45
2023-01-30T14:37:38.016Z,45.15
2023-01-30T14:40:24.592Z,45.33
2023-01-30T14:43:13.066Z,45.42
2023-01-30T14:45:48.863Z,43.20
2023-01-30T14:48:54.454Z,41.88
2023-01-30T14:51:33.980Z,43.00
2023-01-30T14:54:13.290Z,40.05
2023-01-30T14:56:54.307Z,39.70
2023-01-30T14:59:26.481Z,39.03
2023-01-30T15:02:01.661Z,40.70
2023-01-30T15:04:43.091Z,39.38
2023-01-30T15:07:18.887Z,38.08
2023-01-30T15:10:02.552Z,37.75
2023-01-30T15:12:35.166Z,36.72
2023-01-30T15:15:17.173Z,35.83
2023-01-30T15:18:13.985Z,36.65
2023-01-30T15:21:08.567Z,37.00
2023-01-30T15:23:56.393Z,35.50
2023-01-30T15:26:25.948Z,39.22
2023-01-30T15:29:28.866Z,36.13
2023-01-30T15:31:57.027Z,38.78
2023-01-30T15:34:27.278Z,37.55
2023-01-30T15:36:53.876Z,42.83
2023-01-30T15:39:23.884Z,40.00
2023-01-30T15:41:57.224Z,36.30
2023-01-30T15:44:45.573Z,35.17
2023-01-30T15:47:33.807Z,41.08
2023-01-30T15:50:04.873Z,39.95
2023-01-30T15:52:48.285Z,40.83
2023-01-30T15:55:30.771Z,41.47
2023-01-30T15:58:01.482Z,41.25
2023-01-30T16:00:31.750Z,42.88
2023-01-30T16:02:59.855Z,44.85
2023-01-30T16:05:26.940Z,46.83
2023-01-30T16:07:55.562Z,49.33
2023-01-30T16:10:27.201Z,47.08
2023-01-30T16:12:56.569Z,46.85
2023-01-30T16:15:26.044Z,46.40
2023-01-30T16:18:05.761Z,53.20
2023-01-30T16:23:37.404Z,51.45
2023-01-30T16:26:08.123Z,50.90
2023-01-30T16:28:35.179Z,49.60
2023-01-30T16:31:07.911Z,51.55
2023-01-30T16:33:37.584Z,49.92
2023-01-30T16:36:27.232Z,56.08
2023-01-30T16:38:54.964Z,55.58
2023-01-30T16:41:42.889Z,55.05
2023-01-30T16:44:22.883Z,56.25
2023-01-30T16:47:06.346Z,56.00
2023-01-30T16:49:36.767Z,55.03
2023-01-30T16:52:18.603Z,57.80
2023-01-30T16:55:06.628Z,56.33
2023-01-30T16:57:36.696Z,56.58
2023-01-30T17:00:10.228Z,60.78
2023-01-30T17:02:41.556Z,63.35
2023-01-30T17:05:21.594Z,59.63
2023-01-30T17:07:49.957Z,63.45
2023-01-30T17:10:28.655Z,62.80
2023-01-30T17:12:58.336Z,63.15
2023-01-30T17:15:38.011Z,63.00
2023-01-30T17:18:04.710Z,62.10
2023-01-30T17:20:38.643Z,61.92
2023-01-30T17:23:08.683Z,65.53
2023-01-30T17:25:44.336Z,62.45
2023-01-30T17:28:17.807Z,62.00
2023-01-30T17:30:44.504Z,63.28
2023-01-30T17:33:12.009Z,63.22
2023-01-30T17:35:38.904Z,61.53
2023-01-30T17:38:06.311Z,64.25
2023-01-30T17:40:36.096Z,61.50
2023-01-30T17:43:02.684Z,68.00
2023-01-30T17:45:29.367Z,59.17
2023-01-30T17:47:56.150Z,60.47
2023-01-30T17:50:23.042Z,56.13
2023-01-30T17:52:49.647Z,54.30
2023-01-30T17:55:16.432Z,56.30
2023-01-30T17:57:46.540Z,54.90
2023-01-30T18:00:18.892Z,54.65
2023-01-30T18:02:45.898Z,56.17
2023-01-30T18:05:12.864Z,54.83
2023-01-30T18:07:40.938Z,57.10
2023-01-30T18:10:18.924Z,56.35
2023-01-30T18:12:45.735Z,56.75
2023-01-30T18:15:15.119Z,59.00
2023-01-30T18:17:47.039Z,56.75
2023-01-30T18:20:17.581Z,60.88
2023-01-30T18:22:44.627Z,58.75
2023-01-30T18:25:14.851Z,60.53
2023-01-30T18:27:44.098Z,59.22
2023-01-30T18:30:17.450Z,59.47
2023-01-30T18:32:52.930Z,60.58
2023-01-30T18:35:21.627Z,57.47
2023-01-30T18:37:48.474Z,60.20
2023-01-30T18:40:15.270Z,59.70
2023-01-30T18:42:42.402Z,58.40
2023-01-30T18:45:09.602Z,56.83
2023-01-30T18:47:36.223Z,58.22
2023-01-30T18:50:03.020Z,58.35
2023-01-30T18:52:29.601Z,56.75
2023-01-30T18:54:56.222Z,53.63
2023-01-30T18:57:22.838Z,55.25
2023-01-30T18:59:49.427Z,55.88
2023-01-30T19:02:16.096Z,55.15
2023-01-30T19:04:42.816Z,54.90
2023-01-30T19:07:11.113Z,55.63
2023-01-30T19:09:37.868Z,53.17
2023-01-30T19:12:23.556Z,56.40
2023-01-30T19:14:50.122Z,55.25
2023-01-30T19:17:17.165Z,52.10
2023-01-30T19:19:44.009Z,51.83
2023-01-30T19:22:10.540Z,52.35
2023-01-30T19:24:37.242Z,50.20
2023-01-30T19:27:05.374Z,50.05
2023-01-30T19:29:31.939Z,49.67
2023-01-30T19:31:58.696Z,51.13
2023-01-30T19:34:25.619Z,50.83
2023-01-30T19:36:52.227Z,52.13
2023-01-30T19:39:18.909Z,52.20
2023-01-30T19:41:45.519Z,52.85
2023-01-30T19:44:12.484Z,54.35
2023-01-30T19:46:39.078Z,54.97
2023-01-30T19:49:05.878Z,55.50
2023-01-30T19:51:35.415Z,56.60
2023-01-30T19:54:07.678Z,58.25
2023-01-30T19:56:34.634Z,58.47
2023-01-30T19:59:02.319Z,57.97
2023-01-30T20:01:32.714Z,60.67
2023-01-30T20:04:00.819Z,60.58
2023-01-30T20:06:30.817Z,59.03
2023-01-30T20:09:00.182Z,57.88
2023-01-30T20:11:27.023Z,57.28
2023-01-30T20:13:54.196Z,56.47
2023-01-30T20:16:24.897Z,58.45
2023-01-30T20:18:59.669Z,55.40
2023-01-30T20:23:53.668Z,46.50
2023-01-30T20:26:26.687Z,50.10
2023-01-30T20:28:56.886Z,51.13
2023-01-30T20:31:26.428Z,49.38
2023-01-30T20:33:55.792Z,50.90
2023-01-30T20:36:23.518Z,49.42
2023-01-30T20:38:51.082Z,47.58
2023-01-30T20:41:20.805Z,44.10
2023-01-30T20:43:51.122Z,41.78
2023-01-30T20:46:29.449Z,40.97
2023-01-30T20:48:58.265Z,40.15
2023-01-30T20:51:29.908Z,39.13
2023-01-30T20:54:05.412Z,40.92
2023-01-30T20:56:35.416Z,41.40
2023-01-30T20:59:04.661Z,40.88
2023-01-30T21:01:37.869Z,40.45
2023-01-30T21:04:07.877Z,38.72
2023-01-30T21:06:42.028Z,39.00
2023-01-30T21:09:13.141Z,40.13
2023-01-30T21:11:40.049Z,40.30
2023-01-30T21:14:06.659Z,39.30
2023-01-30T21:16:35.677Z,38.58
2023-01-30T21:19:06.056Z,37.85
2023-01-30T21:21:40.438Z,38.78
2023-01-30T21:24:12.961Z,42.33
2023-01-30T21:26:41.953Z,63.55
2023-01-30T21:29:08.980Z,45.90
2023-01-30T21:31:37.535Z,45.50
2023-01-30T21:34:04.673Z,50.33
2023-01-30T21:36:31.519Z,46.53
2023-01-30T21:39:16.637Z,47.95
2023-01-30T21:44:39.244Z,39.90
2023-01-30T21:47:06.860Z,42.30
2023-01-30T21:49:34.264Z,43.20
2023-01-30T21:52:00.872Z,40.95
2023-01-30T21:54:27.845Z,45.38
2023-01-30T21:56:54.848Z,41.55
2023-01-30T21:59:21.446Z,41.40
2023-01-30T22:01:48.555Z,40.78
2023-01-30T22:04:16.307Z,41.05
2023-01-30T22:06:43.932Z,38.45
2023-01-30T22:09:15.431Z,36.25
2023-01-30T22:11:42.362Z,37.53
2023-01-30T22:14:09.228Z,36.53
2023-01-30T22:16:36.189Z,37.20
2023-01-30T22:19:04.616Z,36.58
2023-01-30T22:21:35.197Z,37.15
2023-01-30T22:24:02.875Z,35.03
2023-01-30T22:26:29.735Z,34.28
2023-01-30T22:29:01.311Z,34.05
2023-01-30T22:31:34.487Z,34.60
2023-01-30T22:34:03.368Z,33.97
2023-01-30T22:36:32.043Z,32.90
2023-01-30T22:38:58.602Z,36.13
2023-01-30T22:41:27.228Z,39.55
2023-01-30T22:43:55.867Z,45.35
2023-01-30T22:46:28.412Z,46.55
2023-01-30T22:48:55.139Z,47.55
2023-01-30T22:51:26.063Z,46.33
2023-01-30T22:53:58.376Z,41.97
2023-01-30T22:56:27.826Z,40.28
2023-01-30T22:58:54.836Z,40.67
2023-01-30T23:01:24.328Z,39.00
2023-01-30T23:03:59.977Z,39.38
2023-01-30T23:06:27.738Z,37.63
2023-01-30T23:08:55.086Z,37.83
2023-01-30T23:11:32.199Z,39.78
2023-01-30T23:14:06.957Z,45.03
2023-01-30T23:19:03.591Z,40.20
2023-01-30T23:21:36.050Z,44.53
2023-01-30T23:24:11.810Z,45.03
2023-01-30T23:26:41.604Z,47.55
2023-01-30T23:29:13.137Z,44.60
2023-01-30T23:31:41.677Z,47.35
2023-01-30T23:34:12.024Z,43.28
2023-01-30T23:36:38.903Z,47.22
2023-01-30T23:39:05.633Z,40.50
2023-01-30T23:41:33.744Z,44.00
2023-01-30T23:44:00.690Z,42.22
2023-01-30T23:46:33.440Z,47.47
2023-01-30T23:49:19.251Z,96.70
2023-01-30T23:51:46.190Z,40.35
2023-01-30T23:54:13.783Z,39.70
2023-01-30T23:56:42.919Z,36.42
2023-01-30T23:59:10.284Z,44.88
